Time;durP1;ratioP1;P1;durP2;ratioP2;P2;SDS_P1;SDS_P2;PMS_P1;PMS_P2;Temp;Humidity;BMP_temperature;BMP_pressure;BME280_temperature;BME280_humidity;BME280_pressure;Samples;Min_cycle;Max_cycle;Signal;HPM_P1;HPM_P2
2022/10/26 00:01:21;;;;;;;9.15;2.80;;;14.90;94.20;;;17.60;53.98;97608.22;4925667;29;20056;-46
2022/10/26 00:03:49;;;;;;;5.70;2.67;;;14.90;93.90;;;17.61;53.86;97609.03;4925657;29;20056;-48
2022/10/26 00:06:21;;;;;;;5.95;3.00;;;14.90;93.90;;;17.63;53.83;97605.09;4925413;29;20376;-46
2022/10/26 00:08:50;;;;;;;3.85;2.65;;;14.90;94.20;;;17.61;53.92;97609.84;4925614;29;20050;-46
2022/10/26 00:11:18;;;;;;;4.82;2.50;;;14.80;94.30;;;17.61;53.77;97611.72;4925717;29;20051;-47
2022/10/26 00:13:47;;;;;;;3.50;2.70;;;14.70;94.90;;;17.55;53.82;97607.16;4925413;29;20346;-46
2022/10/26 00:16:20;;;;;;;4.32;3.10;;;14.60;95.50;;;17.52;53.89;97606.53;4908149;29;20053;-47
2022/10/26 00:18:49;;;;;;;11.83;3.33;;;14.60;96.00;;;17.55;53.89;97604.47;4906521;29;20074;-46
2022/10/26 00:21:17;;;;;;;5.03;3.15;;;14.60;95.90;;;17.55;53.97;97605.28;4906877;29;20309;-48
2022/10/26 00:23:45;;;;;;;3.60;2.50;;;14.70;95.60;;;17.55;54.08;97608.00;4906236;29;20052;-45
2022/10/26 00:26:13;;;;;;;3.95;2.95;;;14.70;95.60;;;17.57;54.10;97607.78;4906216;29;20060;-47
2022/10/26 00:28:41;;;;;;;6.05;3.13;;;14.70;95.50;;;17.57;54.21;97610.47;4907202;29;20052;-47
2022/10/26 00:31:14;;;;;;;4.80;2.38;;;14.70;96.10;;;17.56;54.30;97606.13;4905993;29;20057;-45
2022/10/26 00:33:42;;;;;;;4.60;3.22;;;14.60;96.60;;;17.58;54.27;97610.25;4906861;29;20224;-45
2022/10/26 00:36:13;;;;;;;3.95;2.28;;;14.70;96.60;;;17.57;54.25;97611.28;4906165;29;20052;-45
2022/10/26 00:38:44;;;;;;;8.07;3.25;;;14.70;96.90;;;17.58;54.25;97618.31;4906711;29;20063;-49
2022/10/26 00:41:16;;;;;;;4.65;2.75;;;14.70;96.60;;;17.56;54.34;97612.31;4906330;29;20055;-46
2022/10/26 00:43:44;;;;;;;6.38;2.90;;;14.60;98.00;;;17.57;54.44;97621.25;4907583;29;20059;-50
2022/10/26 00:46:29;;;;;;;4.43;3.50;;;14.60;97.00;;;17.60;54.45;97612.75;4924942;29;20250;-46
2022/10/26 00:49:11;;;;;;;4.10;3.00;;;14.70;96.90;;;17.64;54.12;97613.97;4927321;29;20060;-45
2022/10/26 00:51:47;;;;;;;4.97;2.95;;;14.70;96.60;;;17.63;54.42;97623.09;4912758;29;20052;-49
2022/10/26 00:54:17;;;;;;;5.07;3.22;;;14.70;96.30;;;17.59;54.30;97622.69;4911813;29;20059;-46
2022/10/26 00:56:50;;;;;;;4.57;3.28;;;14.70;96.30;;;17.62;54.69;97626.81;4910164;29;20052;-49
2022/10/26 00:59:21;;;;;;;6.07;2.95;;;14.70;97.10;;;17.66;54.46;97623.53;4929148;29;20048;-45
2022/10/26 01:01:51;;;;;;;4.47;2.95;;;14.70;97.30;;;17.66;54.33;97626.22;4928200;29;20058;-50
2022/10/26 01:04:19;;;;;;;8.15;3.20;;;14.70;97.30;;;17.66;54.33;97630.75;4928033;29;20076;-48
2022/10/26 01:07:13;;;;;;;4.40;2.88;;;14.70;97.40;;;17.65;54.37;97629.09;4912212;29;20063;-46
2022/10/26 01:09:41;;;;;;;4.60;2.92;;;14.70;97.80;;;17.65;54.51;97623.72;4911293;29;20048;-47
2022/10/26 01:12:09;;;;;;;6.82;2.80;;;14.70;98.10;;;17.66;54.83;97618.13;4928570;29;20240;-47
2022/10/26 01:14:38;;;;;;;4.53;2.88;;;14.70;98.20;;;17.66;54.72;97609.22;4907094;29;20044;-47
2022/10/26 01:17:17;;;;;;;3.28;2.97;;;14.70;98.50;;;17.68;54.80;97616.06;4893197;29;20049;-49
2022/10/26 01:20:25;;;;;;;3.60;2.72;;;14.70;98.80;;;17.62;54.64;97610.66;4909206;29;20052;-50
2022/10/26 01:23:18;;;;;;;7.25;2.90;;;14.60;99.10;;;17.60;54.80;97602.81;4909169;29;20060;-46
2022/10/26 01:26:26;;;;;;;5.72;2.75;;;14.50;99.90;;;17.60;54.86;97585.81;4908904;29;20044;-45
2022/10/26 01:29:06;;;;;;;6.35;3.00;;;14.60;99.90;;;17.61;54.85;97580.25;4909540;29;20359;-46
2022/10/26 01:32:02;;;;;;;4.05;2.60;;;14.60;99.50;;;17.62;54.82;97581.91;4909536;29;20270;-47
2022/10/26 01:34:47;;;;;;;5.05;2.70;;;14.60;98.90;;;17.66;54.55;97582.28;4894862;29;20048;-48
2022/10/26 01:37:25;;;;;;;8.20;2.85;;;14.70;98.90;;;17.67;54.42;97584.78;4893275;29;20052;-46
2022/10/26 01:40:01;;;;;;;3.67;2.28;;;14.70;98.40;;;17.69;54.59;97582.72;4907220;29;20254;-47
2022/10/26 01:42:30;;;;;;;4.47;3.00;;;14.70;98.60;;;17.69;54.82;97582.72;4908224;29;20059;-46
2022/10/26 01:45:08;;;;;;;4.55;2.72;;;14.70;98.30;;;17.70;54.40;97568.22;4917822;29;20048;-48
2022/10/26 01:47:38;;;;;;;6.43;2.65;;;14.70;98.40;;;17.65;54.56;97565.31;4927065;29;20047;-47
2022/10/26 01:50:07;;;;;;;3.55;2.22;;;14.70;98.50;;;17.64;54.56;97562.84;4926654;29;20047;-46
2022/10/26 01:52:35;;;;;;;4.50;2.72;;;14.70;98.20;;;17.64;54.60;97570.91;4926756;29;20048;-45
2022/10/26 01:55:45;;;;;;;3.95;2.42;;;14.80;97.60;;;17.63;54.68;97580.84;4927575;29;20342;-46
2022/10/26 01:58:43;;;;;;;3.90;2.88;;;14.90;97.50;;;17.62;54.62;97567.59;4926407;29;20058;-46
2022/10/26 02:01:44;;;;;;;5.40;2.92;;;14.90;97.10;;;17.66;54.85;97558.06;4895843;29;20056;-45
2022/10/26 02:04:49;;;;;;;5.47;2.60;;;14.80;97.90;;;17.66;54.72;97555.38;4927848;29;20067;-46
2022/10/26 02:07:45;;;;;;;4.20;2.58;;;14.80;97.30;;;17.67;54.71;97555.16;4927414;29;20048;-46
2022/10/26 02:10:33;;;;;;;4.38;3.17;;;14.80;97.90;;;17.66;54.77;97556.22;4926984;29;20048;-45
2022/10/26 02:13:38;;;;;;;5.75;2.80;;;14.70;98.50;;;17.64;54.62;97544.00;4927287;29;20048;-47
2022/10/26 02:16:26;;;;;;;5.53;2.53;;;14.70;99.10;;;17.62;54.92;97556.84;4911490;29;20052;-47
2022/10/26 02:19:02;;;;;;;8.13;3.20;;;14.70;99.10;;;17.60;54.59;97569.66;4908318;29;20045;-47
2022/10/26 02:21:45;;;;;;;4.25;2.58;;;14.60;98.50;;;17.57;55.06;97567.41;4909340;29;20052;-49
2022/10/26 02:24:16;;;;;;;4.07;2.65;;;14.60;98.60;;;17.58;54.93;97572.56;4907924;29;20417;-45
2022/10/26 02:26:47;;;;;;;3.40;2.50;;;14.60;99.10;;;17.52;54.55;97570.72;4907246;29;20053;-47
2022/10/26 02:29:18;;;;;;;11.68;3.47;;;14.50;99.20;;;17.51;54.70;97577.13;4907855;29;20044;-48
2022/10/26 02:31:48;;;;;;;7.45;2.67;;;14.50;99.60;;;17.45;54.89;97581.47;4892086;29;20443;-49
2022/10/26 02:34:24;;;;;;;6.95;3.67;;;14.30;99.60;;;17.40;54.76;97581.25;4906624;29;20051;-45
2022/10/26 02:36:57;;;;;;;3.75;2.42;;;14.30;99.90;;;17.39;55.17;97586.84;4907256;29;20059;-46
2022/10/26 02:39:31;;;;;;;5.13;2.33;;;14.40;99.90;;;17.37;55.28;97589.78;4906895;29;20045;-45
2022/10/26 02:42:06;;;;;;;5.80;2.67;;;14.30;99.90;;;17.42;55.08;97589.13;4907172;29;20056;-45
2022/10/26 02:44:52;;;;;;;6.93;2.53;;;14.40;99.90;;;17.41;54.82;97599.09;4914075;29;20358;-45
2022/10/26 02:47:21;;;;;;;4.85;3.15;;;14.40;99.60;;;17.43;54.70;97598.88;4926029;29;20052;-45
2022/10/26 02:49:49;;;;;;;4.35;2.60;;;14.40;99.80;;;17.44;54.90;97598.66;4925775;29;20362;-46
2022/10/26 02:52:50;;;;;;;5.65;2.70;;;14.50;99.20;;;17.46;54.78;97580.44;4926659;29;20245;-45
2022/10/26 02:55:26;;;;;;;3.58;2.33;;;14.50;98.60;;;17.50;54.72;97584.38;4926324;29;20052;-45
2022/10/26 02:57:59;;;;;;;5.90;2.72;;;14.50;98.60;;;17.51;54.65;97585.22;4925895;29;20054;-46
2022/10/26 03:00:29;;;;;;;3.20;1.95;;;14.50;98.80;;;17.49;54.63;97596.19;4926144;29;20056;-46
2022/10/26 03:02:58;;;;;;;4.30;2.92;;;14.50;98.70;;;17.47;54.63;97602.81;4925258;29;20051;-46
2022/10/26 03:05:32;;;;;;;5.03;2.92;;;14.40;98.80;;;17.40;55.00;97591.22;4925899;29;20074;-47
2022/10/26 03:08:00;;;;;;;5.53;2.60;;;14.30;99.80;;;17.37;54.73;97597.84;4926677;29;20347;-46
2022/10/26 03:10:28;;;;;;;4.60;2.75;;;14.40;99.90;;;17.33;55.04;97596.56;4925538;29;20246;-46
2022/10/26 03:12:56;;;;;;;4.93;3.00;;;14.30;99.90;;;17.34;55.17;97605.50;4926537;29;20063;-46
2022/10/26 03:15:23;;;;;;;5.20;3.50;;;14.30;99.90;;;17.31;55.27;97601.31;4915542;29;20051;-46
2022/10/26 03:17:51;;;;;;;7.70;4.20;;;14.30;99.90;;;17.27;55.41;97608.16;4907309;29;20045;-46
2022/10/26 03:20:19;;;;;;;8.90;3.92;;;14.20;99.90;;;17.27;55.56;97606.31;4907942;29;20056;-46
2022/10/26 03:22:47;;;;;;;8.18;4.75;;;14.20;99.90;;;17.29;55.42;97617.69;4907408;29;20048;-45
2022/10/26 03:25:15;;;;;;;10.02;4.88;;;14.20;99.90;;;17.29;55.51;97615.00;4907111;29;20062;-46
2022/10/26 03:27:43;;;;;;;6.93;4.32;;;14.20;99.90;;;17.32;55.63;97619.97;4906510;29;20249;-45
2022/10/26 03:30:11;;;;;;;8.98;4.75;;;14.30;99.90;;;17.38;55.55;97606.72;4907752;29;20376;-47
2022/10/26 03:32:39;;;;;;;6.97;3.90;;;14.40;99.90;;;17.43;55.52;97613.16;4907210;29;20051;-45
2022/10/26 03:35:07;;;;;;;6.43;3.63;;;14.40;99.90;;;17.47;55.42;97609.00;4907337;29;20242;-47
2022/10/26 03:37:35;;;;;;;5.95;3.25;;;14.40;99.90;;;17.49;55.46;97609.63;4906807;29;20053;-46
2022/10/26 03:40:04;;;;;;;5.75;2.85;;;14.50;99.90;;;17.49;55.54;97606.13;4907344;29;20052;-45
2022/10/26 03:42:39;;;;;;;5.78;3.33;;;14.50;99.90;;;17.51;55.29;97614.81;4907038;29;20055;-45
2022/10/26 03:45:08;;;;;;;5.47;2.90;;;14.50;99.90;;;17.52;55.68;97616.47;4918912;29;20062;-45
2022/10/26 03:47:46;;;;;;;5.63;3.63;;;14.50;99.90;;;17.54;55.52;97619.78;4924965;29;20056;-47
2022/10/26 03:50:18;;;;;;;5.80;3.38;;;14.50;99.90;;;17.57;55.41;97605.91;4925913;29;20046;-47
2022/10/26 03:52:47;;;;;;;6.45;2.95;;;14.50;99.90;;;17.58;55.60;97598.66;4926105;29;20364;-46
2022/10/26 03:55:16;;;;;;;6.47;3.25;;;14.50;99.90;;;17.60;55.42;97605.50;4925234;29;20129;-46
2022/10/26 03:57:44;;;;;;;5.50;2.70;;;14.60;99.90;;;17.65;55.37;97607.56;4922546;29;20044;-45
2022/10/26 04:00:16;;;;;;;7.20;2.60;;;14.60;99.90;;;17.66;55.41;97607.38;4925829;29;20058;-46
2022/10/26 04:02:52;;;;;;;7.43;2.97;;;14.60;99.90;;;17.68;55.20;97609.84;4926074;29;20056;-48
2022/10/26 04:05:20;;;;;;;5.22;3.05;;;14.60;99.90;;;17.69;54.92;97619.56;4925243;29;20052;-47
2022/10/26 04:08:01;;;;;;;7.32;3.40;;;14.60;99.90;;;17.73;55.05;97607.34;4925766;29;20048;-48
2022/10/26 04:10:30;;;;;;;6.35;3.47;;;14.60;99.90;;;17.70;55.23;97605.09;4925675;29;20242;-46
2022/10/26 04:13:00;;;;;;;5.97;3.58;;;14.60;99.90;;;17.69;55.24;97603.44;4925757;29;20058;-48
2022/10/26 04:15:28;;;;;;;5.40;3.13;;;14.70;99.90;;;17.67;54.97;97595.56;4914082;29;20050;-47
2022/10/26 04:18:01;;;;;;;9.15;4.13;;;14.60;99.90;;;17.68;54.82;97596.38;4906611;29;20381;-46
2022/10/26 04:20:32;;;;;;;5.38;2.55;;;14.60;99.90;;;17.67;54.99;97589.34;4906827;29;20243;-48
2022/10/26 04:23:03;;;;;;;6.40;3.05;;;14.60;99.90;;;17.65;55.04;97603.00;4909168;29;20054;-45
2022/10/26 04:25:32;;;;;;;5.38;3.05;;;14.60;99.90;;;17.62;55.07;97583.75;4910150;29;20057;-46
2022/10/26 04:28:03;;;;;;;6.13;3.40;;;14.60;99.80;;;17.61;54.96;97588.31;4910049;29;20310;-46
2022/10/26 04:30:32;;;;;;;8.65;4.35;;;14.70;99.80;;;17.61;55.01;97582.09;4910452;29;20048;-46
2022/10/26 04:33:00;;;;;;;8.13;3.65;;;14.70;99.60;;;17.66;54.95;97585.84;4910357;29;20072;-47
2022/10/26 04:35:28;;;;;;;5.95;2.97;;;14.70;99.30;;;17.68;55.13;97580.22;4910011;29;20044;-47
2022/10/26 04:38:03;;;;;;;6.72;3.47;;;14.70;99.30;;;17.67;55.06;97575.88;4910156;29;20045;-47
2022/10/26 04:40:33;;;;;;;7.70;3.67;;;14.80;99.10;;;17.69;54.94;97580.00;4910309;29;20048;-46
2022/10/26 04:43:00;;;;;;;6.82;4.38;;;14.80;99.00;;;17.69;55.16;97592.66;4893796;29;20062;-50
2022/10/26 04:45:29;;;;;;;8.35;4.50;;;14.80;99.10;;;17.67;55.16;97594.72;4924235;29;20052;-46
2022/10/26 04:48:06;;;;;;;5.53;3.33;;;14.80;99.20;;;17.68;55.20;97582.91;4928714;29;20056;-47
2022/10/26 04:50:35;;;;;;;5.18;2.60;;;14.70;99.60;;;17.70;55.17;97579.00;4929005;29;20224;-46
2022/10/26 04:53:05;;;;;;;5.35;2.83;;;14.80;99.60;;;17.70;54.98;97595.16;4928928;29;20050;-47
2022/10/26 04:55:34;;;;;;;3.65;2.42;;;14.70;99.50;;;17.75;54.98;97591.81;4928519;29;20040;-49
2022/10/26 04:58:01;;;;;;;5.40;2.60;;;14.80;99.60;;;17.77;54.95;97583.53;4928801;29;20215;-49
2022/10/26 05:00:31;;;;;;;5.45;3.03;;;14.80;99.60;;;17.77;55.00;97586.22;4912215;29;20051;-50
2022/10/26 05:03:02;;;;;;;3.85;2.30;;;14.80;99.40;;;17.81;55.00;97577.53;4928881;29;20056;-49
2022/10/26 05:05:34;;;;;;;4.57;2.60;;;14.80;99.40;;;17.80;55.09;97581.25;4928248;29;20048;-47
2022/10/26 05:08:03;;;;;;;4.87;3.30;;;14.90;99.20;;;17.80;55.02;97597.41;4928907;29;20054;-47
2022/10/26 05:10:32;;;;;;;7.53;3.15;;;14.90;99.10;;;17.79;55.00;97600.31;4927888;29;20342;-47
2022/10/26 05:13:01;;;;;;;8.05;4.38;;;14.90;99.00;;;17.77;54.95;97587.06;4928598;29;20058;-48
2022/10/26 05:15:29;;;;;;;6.43;3.55;;;14.80;99.20;;;17.79;54.96;97595.75;4917114;29;20048;-47
2022/10/26 05:18:00;;;;;;;7.32;3.22;;;14.80;99.30;;;17.83;55.15;97590.78;4909707;29;20052;-52
2022/10/26 05:20:31;;;;;;;3.47;2.17;;;14.90;99.30;;;17.88;54.95;97594.53;4909424;29;20064;-49
2022/10/26 05:23:06;;;;;;;5.78;2.20;;;15.00;98.90;;;17.84;54.91;97590.59;4909890;29;20058;-46
2022/10/26 05:25:37;;;;;;;3.95;2.22;;;15.00;99.20;;;17.88;55.18;97602.63;4908669;29;20266;-47
2022/10/26 05:28:12;;;;;;;4.10;1.90;;;15.00;99.30;;;17.86;55.11;97612.78;4909601;29;20220;-45
2022/10/26 05:30:43;;;;;;;3.70;1.85;;;15.10;99.20;;;17.84;55.09;97612.16;4909213;29;20337;-51
2022/10/26 05:33:12;;;;;;;3.70;2.00;;;15.00;99.10;;;17.89;55.27;97615.06;4893552;29;20343;-49
2022/10/26 05:35:40;;;;;;;3.42;2.03;;;15.10;99.40;;;17.87;55.44;97627.91;4908391;29;20059;-48
2022/10/26 05:38:17;;;;;;;4.68;2.10;;;15.10;99.60;;;17.90;55.44;97624.78;4909399;29;20319;-46
2022/10/26 05:40:50;;;;;;;4.97;2.28;;;15.10;99.50;;;17.94;55.36;97633.28;4909029;29;20354;-46
2022/10/26 05:43:21;;;;;;;3.67;2.40;;;15.20;99.30;;;17.93;55.36;97637.00;4908905;29;20242;-48
2022/10/26 05:45:50;;;;;;;4.88;2.35;;;15.10;99.50;;;17.93;55.35;97638.88;4925809;29;20048;-47
2022/10/26 05:48:21;;;;;;;7.30;1.90;;;15.10;99.80;;;17.98;55.29;97637.19;4927770;29;20052;-48
2022/10/26 05:50:49;;;;;;;3.92;2.30;;;15.20;99.50;;;18.00;55.33;97640.50;4927889;29;20048;-50
2022/10/26 05:53:17;;;;;;;3.38;2.30;;;15.20;99.50;;;18.03;55.26;97652.72;4927885;29;20048;-46
2022/10/26 05:55:45;;;;;;;5.22;1.83;;;15.20;99.40;;;18.05;55.19;97646.13;4927273;29;20048;-46
2022/10/26 05:58:15;;;;;;;5.47;1.85;;;15.20;99.40;;;18.07;55.08;97645.91;4927572;29;20238;-50
2022/10/26 06:01:21;;;;;;;3.08;1.83;;;15.20;99.30;;;18.12;55.26;97650.66;4928059;29;20253;-49
2022/10/26 06:04:07;;;;;;;7.78;2.17;;;15.20;99.60;;;18.12;55.40;97659.56;4927559;29;20056;-48
2022/10/26 06:06:49;;;;;;;4.90;2.33;;;15.20;99.90;;;18.06;55.26;97661.22;4927746;29;20261;-49
2022/10/26 06:09:17;;;;;;;5.10;2.33;;;15.20;99.80;;;18.08;55.02;97661.84;4911262;29;20210;-49
2022/10/26 06:11:45;;;;;;;4.72;2.08;;;15.20;99.70;;;18.09;55.11;97674.28;4926844;29;20426;-50
2022/10/26 06:14:14;;;;;;;2.47;1.65;;;15.20;99.20;;;18.05;55.10;97667.66;4925363;29;20052;-49
2022/10/26 06:16:47;;;;;;;4.13;1.98;;;15.20;99.70;;;18.08;55.42;97682.56;4908612;29;20048;-46
2022/10/26 06:19:33;;;;;;;4.60;2.10;;;15.20;99.80;;;18.08;55.35;97674.50;4907937;29;20044;-48
2022/10/26 06:22:16;;;;;;;3.95;1.77;;;15.20;99.80;;;18.08;55.20;97686.09;4908531;29;20055;-47
2022/10/26 06:25:07;;;;;;;3.80;2.03;;;15.20;99.60;;;18.04;55.27;97695.63;4907985;29;20058;-48
2022/10/26 06:28:26;;;;;;;3.92;2.17;;;15.20;99.80;;;18.11;55.12;97698.34;4908641;29;20234;-48
2022/10/26 06:30:55;;;;;;;2.90;1.92;;;15.20;99.40;;;18.12;54.99;97702.66;4868881;29;20053;-46
2022/10/26 06:33:24;;;;;;;4.00;2.03;;;15.20;99.10;;;18.09;55.21;97708.50;4869185;29;20068;-47
2022/10/26 06:36:26;;;;;;;3.97;3.33;;;15.20;99.50;;;18.17;55.16;97708.28;4889272;29;20057;-48
2022/10/26 06:39:15;;;;;;;4.90;1.83;;;15.20;99.60;;;18.22;54.91;97710.31;4908246;29;20048;-48
2022/10/26 06:41:43;;;;;;;3.45;2.72;;;15.30;98.80;;;18.26;54.77;97711.56;4891753;29;20049;-49
2022/10/26 06:44:22;;;;;;;4.43;1.98;;;15.30;99.10;;;18.29;54.67;97716.53;4911895;29;20054;-48
2022/10/26 06:47:08;;;;;;;3.55;2.40;;;15.40;98.40;;;18.27;54.71;97713.25;4926104;29;20062;-50
2022/10/26 06:50:17;;;;;;;2.88;2.05;;;15.30;98.40;;;18.25;54.72;97704.53;4917072;29;20224;-46
2022/10/26 06:53:04;;;;;;;3.95;1.73;;;15.40;98.20;;;18.26;54.45;97720.50;4874775;29;20064;-49
2022/10/26 06:55:42;;;;;;;4.20;3.17;;;15.30;98.10;;;18.22;54.82;97715.72;4907241;29;20258;-47
2022/10/26 06:58:18;;;;;;;2.72;2.10;;;15.30;98.10;;;18.21;54.68;97714.06;4904390;29;20053;-48
2022/10/26 07:00:50;;;;;;;3.08;2.40;;;15.30;98.10;;;18.24;54.64;97719.03;4891599;29;20056;-46
2022/10/26 07:03:17;;;;;;;5.03;2.30;;;15.30;98.10;;;18.26;54.62;97719.66;4891798;29;20062;-48
2022/10/26 07:05:46;;;;;;;2.53;1.88;;;15.40;97.40;;;18.23;54.72;97722.78;4905991;29;20056;-47
2022/10/26 07:08:14;;;;;;;4.63;2.65;;;15.40;97.80;;;18.27;54.71;97726.72;4891446;29;20238;-50
2022/10/26 07:10:42;;;;;;;3.08;2.47;;;15.40;97.70;;;18.29;54.83;97732.72;4890615;29;20059;-49
2022/10/26 07:13:10;;;;;;;4.03;1.90;;;15.50;98.00;;;18.34;54.82;97729.38;4907509;29;20050;-48
2022/10/26 07:15:39;;;;;;;3.50;2.03;;;15.50;98.10;;;18.38;55.07;97736.88;4906823;29;20072;-48
2022/10/26 07:18:08;;;;;;;4.28;2.63;;;15.60;98.20;;;18.39;54.93;97735.81;4906934;29;20346;-52
2022/10/26 07:20:40;;;;;;;7.45;3.42;;;15.60;98.00;;;18.40;54.79;97745.56;4907452;29;20243;-47
2022/10/26 07:23:12;;;;;;;3.95;2.45;;;15.60;98.20;;;18.39;54.88;97738.50;4907200;29;20052;-51
2022/10/26 07:25:41;;;;;;;6.45;2.80;;;15.60;98.50;;;18.44;54.82;97743.28;4907173;29;20053;-48
2022/10/26 07:28:10;;;;;;;4.65;2.50;;;15.60;98.70;;;18.47;54.77;97745.53;4907223;29;20220;-51
2022/10/26 07:30:39;;;;;;;4.47;2.58;;;15.60;98.80;;;18.47;54.82;97742.84;4907108;29;20060;-48
2022/10/26 07:33:11;;;;;;;3.95;2.10;;;15.70;98.90;;;18.42;55.20;97743.50;4907200;29;20216;-48
2022/10/26 07:35:39;;;;;;;4.45;2.40;;;15.60;99.00;;;18.37;55.42;97737.88;4906940;29;20070;-48
2022/10/26 07:38:08;;;;;;;3.83;2.50;;;15.60;99.20;;;18.41;55.39;97743.69;4907041;29;20052;-50
2022/10/26 07:40:36;;;;;;;4.25;2.83;;;15.60;99.60;;;18.41;55.72;97741.00;4907266;29;20044;-48
2022/10/26 07:43:05;;;;;;;4.10;2.53;;;15.60;99.90;;;18.42;55.31;97743.50;4890785;29;20057;-50
2022/10/26 07:45:34;;;;;;;3.65;1.75;;;15.70;99.90;;;18.47;55.31;97748.25;4921139;29;20063;-50
2022/10/26 07:48:01;;;;;;;2.63;1.80;;;15.60;99.70;;;18.54;55.26;97756.34;4926159;29;20258;-49
2022/10/26 07:50:29;;;;;;;5.20;2.42;;;15.70;99.60;;;18.48;55.43;97755.31;4924540;29;20246;-48
2022/10/26 07:52:58;;;;;;;4.90;2.25;;;15.70;99.20;;;18.53;55.41;97760.06;4925902;29;20050;-46
2022/10/26 07:55:27;;;;;;;3.85;1.73;;;15.80;99.10;;;18.59;55.39;97759.22;4924984;29;20044;-47
2022/10/26 07:57:55;;;;;;;4.03;2.28;;;15.80;99.10;;;18.65;55.39;97763.75;4924247;29;20067;-47
2022/10/26 08:00:24;;;;;;;3.25;2.08;;;15.80;99.10;;;18.68;55.39;97769.56;4925582;29;20036;-51
2022/10/26 08:02:52;;;;;;;4.47;1.83;;;15.90;99.00;;;18.75;55.21;97766.88;4925838;29;20062;-47
2022/10/26 08:05:20;;;;;;;4.03;2.17;;;16.00;98.90;;;18.79;55.12;97773.50;4908580;29;20246;-50
2022/10/26 08:07:48;;;;;;;8.65;2.60;;;16.10;98.70;;;18.85;55.03;97771.88;4925621;29;20048;-47
2022/10/26 08:10:16;;;;;;;5.40;2.92;;;16.10;99.40;;;18.91;54.96;97780.97;4925762;29;20052;-50
2022/10/26 08:12:44;;;;;;;4.25;2.67;;;16.10;98.30;;;18.95;54.94;97768.72;4925286;29;20062;-48
2022/10/26 08:15:12;;;;;;;6.22;2.28;;;16.20;98.00;;;18.98;54.61;97774.53;4916126;29;20056;-48
2022/10/26 08:17:40;;;;;;;3.92;2.58;;;16.20;97.40;;;18.98;54.73;97776.38;4906481;29;20238;-46
2022/10/26 08:20:09;;;;;;;4.60;2.13;;;16.30;97.60;;;19.01;54.72;97774.09;4906810;29;20044;-49
2022/10/26 08:22:37;;;;;;;4.35;2.35;;;16.30;97.40;;;19.06;54.60;97766.19;4906416;29;20057;-48
2022/10/26 08:25:05;;;;;;;4.00;2.10;;;16.40;97.10;;;19.08;54.84;97771.41;4906360;29;20366;-49
2022/10/26 08:27:32;;;;;;;6.63;3.05;;;16.40;97.30;;;19.13;54.69;97776.97;4906093;29;20051;-46
2022/10/26 08:30:00;;;;;;;4.43;2.35;;;16.40;97.20;;;19.15;54.69;97782.97;4906776;29;20048;-49
2022/10/26 08:32:28;;;;;;;6.72;2.70;;;16.40;97.10;;;19.18;54.60;97777.16;4906733;29;20247;-48
2022/10/26 08:34:56;;;;;;;5.57;3.10;;;16.40;97.20;;;19.20;54.56;97785.88;4906184;29;20052;-49
2022/10/26 08:37:25;;;;;;;4.50;1.85;;;16.40;96.90;;;19.24;54.38;97787.09;4906777;29;20059;-49
2022/10/26 08:39:53;;;;;;;4.63;2.30;;;16.50;97.00;;;19.30;54.28;97781.91;4906297;29;20063;-51
2022/10/26 08:42:49;;;;;;;4.90;2.22;;;16.50;96.50;;;19.34;54.42;97793.91;4906388;29;20060;-49
2022/10/26 08:45:30;;;;;;;4.30;1.98;;;16.60;96.40;;;19.42;54.28;97794.50;4917896;29;20052;-49
2022/10/26 08:48:16;;;;;;;5.32;2.90;;;16.60;96.20;;;19.49;54.15;97797.19;4909991;29;20216;-49
2022/10/26 08:50:52;;;;;;;9.50;4.35;;;16.70;96.30;;;19.53;54.02;97801.09;4925170;29;20058;-49
2022/10/26 08:53:36;;;;;;;11.23;3.75;;;16.70;94.90;;;19.56;53.88;97808.78;4925462;29;20040;-47
2022/10/26 08:56:23;;;;;;;4.30;2.15;;;16.80;95.80;;;19.57;54.02;97809.59;4907575;29;20056;-47
2022/10/26 08:58:56;;;;;;;6.78;2.80;;;16.80;95.10;;;19.57;53.92;97820.41;4925058;29;20048;-52
2022/10/26 09:01:24;;;;;;;4.45;2.33;;;16.80;95.80;;;19.60;53.80;97828.91;4925212;29;20048;-47
2022/10/26 09:03:52;;;;;;;3.35;1.75;;;16.80;95.60;;;19.61;53.96;97829.72;4925491;29;20054;-49
2022/10/26 09:06:40;;;;;;;4.88;2.40;;;16.80;95.60;;;19.63;53.95;97830.34;4924549;29;20249;-50
2022/10/26 09:09:39;;;;;;;7.07;2.17;;;16.80;95.60;;;19.67;54.02;97829.69;4926053;29;20052;-51
2022/10/26 09:12:33;;;;;;;3.45;2.30;;;16.90;95.80;;;19.71;53.82;97840.91;4927562;29;20129;-48
2022/10/26 09:15:11;;;;;;;3.53;2.28;;;16.90;95.80;;;19.67;53.86;97835.09;4914372;29;20062;-49
2022/10/26 09:18:08;;;;;;;4.18;2.47;;;16.90;95.80;;;19.67;54.02;97837.78;4909465;29;20051;-46
2022/10/26 09:20:36;;;;;;;3.63;2.20;;;16.90;95.50;;;19.68;53.87;97841.34;4910275;29;20064;-47
2022/10/26 09:23:55;;;;;;;5.55;3.00;;;16.90;95.40;;;19.66;53.85;97843.44;4903551;29;20051;-49
2022/10/26 09:26:31;;;;;;;8.10;2.60;;;16.90;94.60;;;19.67;53.86;97850.47;4902102;29;20048;-47
2022/10/26 09:29:06;;;;;;;7.18;3.10;;;16.90;95.60;;;19.66;53.95;97846.97;4905061;29;20052;-51
2022/10/26 09:31:43;;;;;;;5.88;3.25;;;16.90;95.60;;;19.68;54.16;97861.06;4874449;29;20048;-47
2022/10/26 09:34:41;;;;;;;5.50;2.17;;;17.00;95.70;;;19.63;54.37;97862.75;4903730;29;20058;-49
2022/10/26 09:37:23;;;;;;;4.20;1.83;;;17.00;95.70;;;19.78;54.25;97862.53;4904580;29;20127;-47
2022/10/26 09:40:20;;;;;;;4.38;2.75;;;17.10;95.70;;;19.83;54.01;97874.34;4901407;29;20068;-49
2022/10/26 09:43:16;;;;;;;5.20;2.78;;;17.10;95.20;;;19.90;54.57;97873.47;4901090;29;20059;-48
2022/10/26 09:45:51;;;;;;;5.03;2.75;;;17.20;96.10;;;19.94;53.90;97867.41;4923755;29;20054;-46
2022/10/26 09:48:32;;;;;;;8.48;2.78;;;17.30;96.50;;;20.00;54.43;97866.53;4928082;29;20249;-49
2022/10/26 09:51:01;;;;;;;11.35;3.08;;;17.40;95.90;;;20.11;53.89;97869.63;4926756;29;20051;-50
2022/10/26 09:53:32;;;;;;;5.47;2.40;;;17.50;95.30;;;20.21;53.89;97868.09;4927558;29;20044;-47
2022/10/26 09:56:10;;;;;;;7.63;2.50;;;17.60;94.80;;;20.31;54.03;97869.50;4927247;29;20249;-50
2022/10/26 09:59:04;;;;;;;9.68;4.63;;;17.70;94.50;;;20.37;53.86;97861.31;4923537;29;20052;-49
2022/10/26 10:01:34;;;;;;;7.57;2.20;;;17.70;93.80;;;20.44;53.64;97872.13;4942008;29;20372;-49
2022/10/26 10:04:11;;;;;;;5.50;3.22;;;17.70;94.20;;;20.43;53.25;97879.41;4927373;29;20242;-50
2022/10/26 10:06:40;;;;;;;6.32;2.40;;;17.80;94.20;;;20.44;53.73;97893.75;4927377;29;20048;-48
2022/10/26 10:09:22;;;;;;;5.32;2.28;;;17.70;94.10;;;20.44;53.51;97891.03;4927591;29;20052;-51
2022/10/26 10:11:57;;;;;;;4.00;2.30;;;17.80;94.00;;;20.43;53.51;97889.38;4926547;29;20052;-47
2022/10/26 10:14:33;;;;;;;10.23;2.67;;;17.70;94.40;;;20.44;53.60;97891.88;4923971;29;20058;-49
2022/10/26 10:17:21;;;;;;;6.13;2.63;;;17.80;94.50;;;20.44;53.56;97891.03;4908263;29;20055;-51
2022/10/26 10:19:50;;;;;;;8.48;3.08;;;17.80;93.70;;;20.50;53.59;97898.28;4922602;29;20051;-51
2022/10/26 10:22:23;;;;;;;6.32;3.20;;;17.80;94.00;;;20.49;53.61;97893.94;4909060;29;20057;-50
2022/10/26 10:24:56;;;;;;;4.23;2.27;;;17.90;94.00;;;20.53;53.39;97903.25;4921571;29;20071;-52
2022/10/26 10:27:25;;;;;;;5.80;2.58;;;18.00;92.90;;;20.60;53.59;97903.22;4922787;29;20500;-46
2022/10/26 10:29:56;;;;;;;5.13;2.35;;;18.00;93.10;;;20.65;53.52;97903.41;4907983;29;20048;-49
2022/10/26 10:32:31;;;;;;;7.05;2.30;;;18.10;92.90;;;20.80;52.84;97912.03;4908262;29;20235;-50
2022/10/26 10:35:28;;;;;;;6.03;2.50;;;18.30;92.40;;;20.94;53.09;97912.75;4907495;29;20051;-46
2022/10/26 10:38:21;;;;;;;4.72;2.35;;;18.40;91.00;;;21.09;52.72;97909.69;4907938;29;20048;-48
2022/10/26 10:40:58;;;;;;;4.78;2.22;;;18.60;89.90;;;21.14;52.80;97909.84;4908045;29;20057;-52
2022/10/26 10:43:27;;;;;;;6.45;3.00;;;18.60;91.00;;;21.20;52.53;97918.97;4906623;29;20220;-52
2022/10/26 10:45:57;;;;;;;6.82;2.47;;;18.70;90.50;;;21.20;52.77;97921.69;4924091;29;20362;-48
2022/10/26 10:48:29;;;;;;;5.38;2.60;;;18.80;90.30;;;21.26;52.70;97907.25;4926941;29;20054;-47
2022/10/26 10:51:04;;;;;;;;;;;18.80;89.70;;;21.40;52.50;97924.19;4927069;29;20052;-49
2022/10/26 10:53:56;;;;;;;7.38;2.85;;;18.80;89.00;;;21.33;51.60;97931.56;4910413;29;19918;-48